Time;durP1;ratioP1;P1;durP2;ratioP2;P2;SDS_P1;SDS_P2;PMS_P1;PMS_P2;Temp;Humidity;BMP_temperature;BMP_pressure;BME280_temperature;BME280_humidity;BME280_pressure;Samples;Min_cycle;Max_cycle;Signal;HPM_P1;HPM_P2
2022/05/13 00:02:14;;;;;;;4.13;3.35;;;;;;;20.53;50.70;93618.72;4990582;28;20057;-84
2022/05/13 00:04:40;;;;;;;4.97;3.55;;;;;;;20.55;50.65;93615.44;5008974;28;20088;-84
2022/05/13 00:07:06;;;;;;;4.00;3.42;;;;;;;20.53;50.83;93624.19;5011556;28;20033;-84
2022/05/13 00:12:15;;;;;;;4.32;3.78;;;;;;;20.53;50.72;93628.94;4992919;28;20463;-85
2022/05/13 00:14:41;;;;;;;3.55;3.25;;;;;;;20.52;50.80;93627.47;5008552;28;20026;-84
2022/05/13 00:17:07;;;;;;;4.00;3.30;;;;;;;20.52;50.88;93652.91;4975662;28;20117;-84
2022/05/13 00:19:32;;;;;;;3.88;3.50;;;;;;;20.51;50.81;93651.44;5008040;28;20060;-88
2022/05/13 00:21:59;;;;;;;5.05;3.38;;;;;;;20.50;50.77;93638.97;4994420;28;20049;-85
2022/05/13 00:24:24;;;;;;;3.78;3.13;;;;;;;20.51;50.76;93643.19;4994867;28;20033;-85
2022/05/13 00:26:50;;;;;;;4.10;3.05;;;;;;;20.51;50.69;93643.19;4995732;28;20044;-85
2022/05/13 00:29:15;;;;;;;3.42;3.00;;;;;;;20.49;50.80;93650.47;4995102;28;20049;-84
2022/05/13 00:31:42;;;;;;;5.80;3.55;;;;;;;20.51;50.74;93656.19;4977746;28;20041;-84
2022/05/13 00:34:07;;;;;;;3.83;3.25;;;;;;;20.49;50.89;93653.97;5010959;28;20045;-84
2022/05/13 00:36:33;;;;;;;3.70;3.20;;;;;;;20.48;50.89;93666.19;4995169;28;20041;-85
2022/05/13 00:38:58;;;;;;;3.70;3.20;;;;;;;20.49;50.64;93669.69;4978609;28;20073;-86
2022/05/13 00:41:23;;;;;;;3.47;2.88;;;;;;;20.50;50.61;93674.66;4977592;28;20045;-87
2022/05/13 00:43:52;;;;;;;4.00;3.15;;;;;;;20.49;50.88;93669.69;5010773;28;20037;-84
2022/05/13 00:46:18;;;;;;;4.13;3.17;;;;;;;20.48;50.74;93673.69;5010463;28;20037;-86
2022/05/13 00:48:44;;;;;;;4.15;2.88;;;;;;;20.48;50.98;93668.19;4994914;28;20143;-85
2022/05/13 00:51:10;;;;;;;4.47;3.30;;;;;;;20.50;50.77;93671.19;4993628;28;20080;-84
2022/05/13 00:53:35;;;;;;;3.55;2.90;;;;;;;20.49;50.80;93667.69;4993551;28;20568;-85
2022/05/13 00:56:01;;;;;;;3.28;2.70;;;;;;;20.48;50.77;93663.44;5010479;28;20033;-84
2022/05/13 00:58:26;;;;;;;3.15;2.63;;;;;;;20.48;51.04;93670.94;4994284;28;20034;-84
2022/05/13 01:00:51;;;;;;;3.30;2.53;;;;;;;20.47;50.72;93666.72;4978052;28;20030;-84
2022/05/13 01:03:17;;;;;;;5.78;3.13;;;;;;;20.47;50.97;93670.22;4993437;28;20050;-84
2022/05/13 01:05:43;;;;;;;3.22;2.70;;;;;;;20.48;50.77;93673.69;4978023;28;20033;-85
2022/05/13 01:08:09;;;;;;;4.32;2.70;;;;;;;20.46;50.59;93670.72;4986855;28;20038;-84
2022/05/13 01:10:35;;;;;;;4.13;2.85;;;;;;;20.46;50.93;93670.72;4990514;28;20117;-84
2022/05/13 01:13:04;;;;;;;3.05;2.42;;;;;;;20.45;50.86;93669.22;4992893;28;20415;-86
2022/05/13 01:15:33;;;;;;;3.08;2.47;;;;;;;20.45;50.93;93655.50;4997829;28;20469;-85
2022/05/13 01:18:07;;;;;;;3.10;2.80;;;;;;;20.45;50.78;93659.00;4998120;28;20115;-84
2022/05/13 01:20:46;;;;;;;3.42;2.97;;;;;;;20.45;50.96;93664.50;5010620;28;20128;-85
2022/05/13 01:23:14;;;;;;;2.92;2.63;;;;;;;20.44;51.05;93659.50;4974114;28;20063;-85
2022/05/13 01:25:55;;;;;;;2.72;2.47;;;;;;;20.44;50.98;93654.03;4990713;28;20386;-84
2022/05/13 01:28:23;;;;;;;;;;;;;;;20.43;50.68;93653.28;4990707;28;20038;-84
2022/05/13 01:30:51;;;;;;;2.83;2.45;;;;;;;20.44;50.73;93657.50;5013107;28;20371;-87
2022/05/13 01:33:16;;;;;;;2.85;2.55;;;;;;;20.44;50.87;93660.25;5009055;28;20037;-84
2022/05/13 01:35:44;;;;;;;3.70;2.67;;;;;;;20.43;50.79;93650.53;4993866;28;20060;-86
2022/05/13 01:38:09;;;;;;;2.67;2.42;;;;;;;20.44;51.02;93654.75;4977524;28;20049;-88
2022/05/13 01:40:35;;;;;;;3.03;2.72;;;;;;;20.41;50.77;93644.06;4993747;28;20041;-85
2022/05/13 01:43:01;;;;;;;3.72;3.08;;;;;;;20.42;50.92;93660.03;4981797;28;20536;-86
2022/05/13 01:45:26;;;;;;;3.92;2.60;;;;;;;20.44;50.98;93662.25;5012968;28;20033;-85
2022/05/13 01:47:51;;;;;;;3.00;2.38;;;;;;;20.41;50.95;93658.53;4996965;28;20491;-85
2022/05/13 01:50:17;;;;;;;3.00;2.38;;;;;;;20.42;51.06;93665.50;5012592;28;20033;-85
2022/05/13 01:52:43;;;;;;;2.70;2.40;;;;;;;20.41;51.30;93661.28;5013007;28;20037;-85
2022/05/13 01:55:09;;;;;;;2.97;2.40;;;;;;;20.41;50.82;93672.28;4989230;28;20038;-88
2022/05/13 01:57:34;;;;;;;2.72;2.30;;;;;;;20.41;51.13;93669.53;5010354;28;20223;-85
2022/05/13 01:59:59;;;;;;;2.25;1.90;;;;;;;20.41;50.96;93671.53;5009663;28;20095;-86
2022/05/13 02:02:25;;;;;;;3.03;2.45;;;;;;;20.40;51.38;93670.03;4999824;28;20033;-85
2022/05/13 02:04:50;;;;;;;2.35;2.15;;;;;;;20.41;51.13;93674.28;4989573;28;20114;-85
2022/05/13 02:07:16;;;;;;;3.03;2.78;;;;;;;20.40;51.17;93675.53;5009189;28;20045;-85
2022/05/13 02:09:42;;;;;;;2.80;2.50;;;;;;;20.40;51.02;93667.28;4992823;28;20042;-90
2022/05/13 02:12:08;;;;;;;2.80;2.30;;;;;;;20.40;51.15;93665.28;4984711;28;20112;-85
2022/05/13 02:14:33;;;;;;;2.58;2.28;;;;;;;20.39;51.00;93663.81;4995899;28;20828;-84
2022/05/13 02:16:59;;;;;;;3.03;2.42;;;;;;;20.39;51.29;93668.56;5013092;28;20033;-90
2022/05/13 02:19:24;;;;;;;2.80;2.50;;;;;;;20.40;51.13;93675.53;5004579;28;20432;-86
2022/05/13 02:21:50;;;;;;;1.88;1.67;;;;;;;20.40;50.99;93667.28;4973695;28;20401;-85
2022/05/13 02:24:15;;;;;;;2.97;2.65;;;;;;;20.39;51.16;93677.53;4988629;28;20029;-85
2022/05/13 02:26:41;;;;;;;3.55;2.90;;;;;;;20.39;51.04;93674.78;5006144;28;20041;-84
2022/05/13 02:29:06;;;;;;;3.15;2.63;;;;;;;20.38;51.11;93667.06;4989788;28;20030;-85
2022/05/13 02:31:31;;;;;;;2.83;2.45;;;;;;;20.37;51.05;93669.06;5009852;28;20092;-85
2022/05/13 02:33:58;;;;;;;2.10;1.88;;;;;;;20.37;51.28;93668.31;4990962;28;20037;-84
2022/05/13 02:36:23;;;;;;;3.22;2.28;;;;;;;20.36;51.31;93666.81;4976382;28;20029;-85
2022/05/13 02:38:48;;;;;;;3.00;2.65;;;;;;;20.38;50.97;93669.81;4992980;28;20416;-85
2022/05/13 02:41:14;;;;;;;3.90;2.75;;;;;;;20.38;51.23;93667.06;4976166;28;20037;-85
2022/05/13 02:43:42;;;;;;;2.88;2.42;;;;;;;20.36;51.36;93656.56;4977921;28;20041;-85
2022/05/13 02:46:08;;;;;;;3.22;2.70;;;;;;;20.36;51.18;93653.06;5008014;28;20045;-84
2022/05/13 02:48:33;;;;;;;2.45;2.00;;;;;;;20.36;51.03;93658.56;4976684;28;20037;-85
2022/05/13 02:50:58;;;;;;;3.28;2.40;;;;;;;20.34;51.43;93661.13;4992899;28;20107;-85
2022/05/13 02:53:24;;;;;;;2.58;2.10;;;;;;;20.37;51.21;93649.84;4975198;28;20858;-86
2022/05/13 02:55:49;;;;;;;3.15;2.45;;;;;;;20.34;51.35;93650.88;4992106;28;20052;-85
2022/05/13 02:58:15;;;;;;;3.78;2.60;;;;;;;20.34;51.38;93642.63;4992520;28;20223;-85
2022/05/13 03:00:41;;;;;;;2.65;2.38;;;;;;;20.34;51.30;93650.88;4992897;28;20040;-84
2022/05/13 03:03:06;;;;;;;2.53;2.28;;;;;;;20.34;51.35;93650.13;4975760;28;20064;-85
2022/05/13 03:05:32;;;;;;;2.63;2.40;;;;;;;20.34;51.42;93658.38;4992393;28;20037;-86
2022/05/13 03:08:01;;;;;;;2.78;2.10;;;;;;;20.33;51.55;93654.13;4992008;28;20033;-85
2022/05/13 03:10:29;;;;;;;2.63;2.20;;;;;;;20.34;51.06;93655.63;4992736;28;20049;-86
2022/05/13 03:12:56;;;;;;;3.58;2.40;;;;;;;20.32;51.57;93650.66;5008262;28;20088;-85
2022/05/13 03:15:21;;;;;;;2.75;2.55;;;;;;;20.33;51.57;93649.41;4991522;28;20038;-85
2022/05/13 03:17:47;;;;;;;3.65;3.00;;;;;;;20.34;51.54;93655.63;4976948;28;20409;-85
2022/05/13 03:20:15;;;;;;;3.05;2.50;;;;;;;20.32;51.37;93649.91;4975156;28;20029;-90
2022/05/13 03:22:41;;;;;;;2.90;2.42;;;;;;;20.32;51.25;93636.91;4992743;28;20040;-85
2022/05/13 03:25:07;;;;;;;2.90;2.60;;;;;;;20.30;51.46;93647.69;4991694;28;20037;-84
2022/05/13 03:27:32;;;;;;;3.03;2.67;;;;;;;20.33;51.22;93649.41;4992849;28;20052;-85
2022/05/13 03:29:58;;;;;;;2.17;1.98;;;;;;;20.32;51.24;93645.16;5025876;28;20049;-85
2022/05/13 03:32:23;;;;;;;2.60;2.38;;;;;;;20.32;51.29;93650.66;5007386;28;20535;-84
2022/05/13 03:34:49;;;;;;;2.05;1.80;;;;;;;20.32;51.19;93653.41;4991944;28;20041;-84
2022/05/13 03:37:14;;;;;;;2.92;2.67;;;;;;;20.29;51.45;93650.94;4977384;28;20037;-84
2022/05/13 03:39:40;;;;;;;2.72;2.17;;;;;;;20.31;51.32;93651.16;4996521;28;20037;-85
2022/05/13 03:42:05;;;;;;;3.15;2.45;;;;;;;20.31;51.35;93656.66;4979100;28;20045;-84
2022/05/13 03:44:31;;;;;;;2.95;2.50;;;;;;;20.31;51.44;93654.66;4983936;28;20032;-83
2022/05/13 03:46:56;;;;;;;3.20;2.80;;;;;;;20.27;51.55;93656.19;4979645;28;20080;-85
2022/05/13 03:49:22;;;;;;;2.83;2.47;;;;;;;20.30;51.34;93653.16;4979190;28;20052;-85
2022/05/13 03:51:47;;;;;;;3.15;2.80;;;;;;;20.29;51.25;93659.19;4979333;28;20038;-85
2022/05/13 03:54:13;;;;;;;2.95;2.65;;;;;;;20.27;51.48;93664.44;4995189;28;20033;-85
2022/05/13 03:56:38;;;;;;;3.00;2.70;;;;;;;20.28;51.47;93666.66;5012040;28;20030;-86
2022/05/13 03:59:04;;;;;;;3.00;2.42;;;;;;;20.29;51.52;93665.41;4995267;28;20048;-85
2022/05/13 04:01:29;;;;;;;3.53;2.17;;;;;;;20.30;51.46;93652.44;4978982;28;20603;-85
2022/05/13 04:03:55;;;;;;;2.65;2.25;;;;;;;20.30;51.31;93660.66;4979030;28;20049;-85
2022/05/13 04:09:04;;;;;;;7.07;2.83;;;;;;;20.30;51.58;93655.16;5000164;28;20088;-84
2022/05/13 04:11:32;;;;;;;3.15;2.50;;;;;;;20.33;51.58;93637.66;4993453;28;20117;-85
2022/05/13 04:16:43;;;;;;;2.38;2.17;;;;;;;20.33;51.69;93637.66;5008698;28;20084;-84
2022/05/13 04:19:09;;;;;;;3.08;2.35;;;;;;;20.30;51.31;93655.16;5007894;28;20042;-84
2022/05/13 04:21:36;;;;;;;3.30;2.75;;;;;;;20.27;51.60;93653.44;5011645;28;20041;-86
2022/05/13 04:24:05;;;;;;;7.25;2.58;;;;;;;20.32;51.55;93655.41;4979175;28;20061;-84
2022/05/13 04:26:30;;;;;;;9.75;2.97;;;;;;;20.28;51.51;93654.94;5009745;28;20065;-84
2022/05/13 04:28:56;;;;;;;25.63;11.20;;;;;;;20.32;52.16;93647.16;4979398;28;20033;-86
2022/05/13 04:31:24;;;;;;;25.23;15.05;;;;;;;20.31;51.70;93649.16;4977676;28;20034;-86
2022/05/13 04:33:50;;;;;;;12.35;6.80;;;;;;;20.30;52.05;93649.69;4979333;28;20490;-84
2022/05/13 04:36:15;;;;;;;8.82;5.80;;;;;;;20.34;51.50;93656.38;5014218;28;20033;-87
2022/05/13 04:38:41;;;;;;;17.45;5.55;;;;;;;20.35;51.81;93668.09;5031065;28;20056;-85
2022/05/13 04:43:54;;;;;;;26.73;21.45;;;;;;;20.36;51.92;93673.03;5012812;28;20095;-84
2022/05/13 04:46:20;;;;;;;16.00;9.23;;;;;;;20.33;52.65;93670.63;5009868;28;20045;-85
2022/05/13 04:48:47;;;;;;;17.73;11.90;;;;;;;20.36;52.68;93667.56;4994290;28;20040;-87
2022/05/13 04:51:12;;;;;;;15.05;7.32;;;;;;;20.35;51.98;93673.59;4986984;28;20326;-83
2022/05/13 04:53:38;;;;;;;11.07;7.00;;;;;;;20.30;52.01;93675.13;4976074;28;20587;-83
2022/05/13 04:56:06;;;;;;;39.80;8.23;;;;;;;20.28;52.52;93666.66;4998850;28;20040;-83
2022/05/13 04:58:31;;;;;;;16.58;5.50;;;;;;;20.16;53.75;93676.28;4994700;28;20052;-83
2022/05/13 05:00:57;;;;;;;24.38;6.63;;;;;;;20.14;54.59;93676.78;4976161;28;20030;-82
2022/05/13 05:03:23;;;;;;;18.50;6.07;;;;;;;20.07;55.38;93679.38;4979914;28;20045;-82
2022/05/13 05:05:49;;;;;;;13.40;6.18;;;;;;;20.02;55.99;93669.19;5005392;28;20038;-85
2022/05/13 05:08:15;;;;;;;14.55;6.75;;;;;;;19.97;56.15;93676.22;4983557;28;20133;-83
2022/05/13 05:10:42;;;;;;;12.60;6.65;;;;;;;20.00;56.58;93675.19;4991366;28;20049;-87
2022/05/13 05:13:08;;;;;;;29.38;10.27;;;;;;;19.93;57.04;93669.53;4989846;28;20428;-84
2022/05/13 05:15:33;;;;;;;64.78;15.98;;;;;;;19.89;57.03;93672.59;4992228;28;20037;-85
2022/05/13 05:17:59;;;;;;;53.05;19.48;;;;;;;19.87;57.42;93677.09;4986713;28;20053;-83
2022/05/13 05:20:24;;;;;;;56.03;20.45;;;;;;;19.83;57.68;93685.59;4986695;28;20095;-85
2022/05/13 05:22:50;;;;;;;52.20;20.95;;;;;;;19.84;57.74;93671.38;4992926;28;20374;-85
2022/05/13 05:25:16;;;;;;;30.05;14.85;;;;;;;19.77;58.05;93671.19;4991414;28;20033;-85
2022/05/13 05:27:42;;;;;;;25.98;10.50;;;;;;;19.84;57.73;93670.63;5009015;28;20388;-87
2022/05/13 05:30:08;;;;;;;31.02;10.52;;;;;;;19.77;57.85;93677.41;5009477;28;20040;-83
2022/05/13 05:32:34;;;;;;;18.30;9.40;;;;;;;19.74;57.94;93669.47;4977088;28;20041;-83
2022/05/13 05:34:59;;;;;;;14.35;7.25;;;;;;;19.69;58.18;93668.28;4976672;28;20041;-84
2022/05/13 05:37:25;;;;;;;15.07;8.98;;;;;;;19.70;58.46;93663.53;5007233;28;20037;-84
2022/05/13 05:39:52;;;;;;;18.27;8.63;;;;;;;19.68;58.21;93652.34;4991801;28;20480;-82
2022/05/13 05:42:17;;;;;;;19.98;10.63;;;;;;;19.71;58.02;93656.78;4990673;28;20042;-86
2022/05/13 05:44:44;;;;;;;31.35;11.40;;;;;;;19.68;58.24;93655.09;4998145;28;20924;-86
2022/05/13 05:47:09;;;;;;;26.60;11.85;;;;;;;19.69;58.31;93662.06;4992795;28;20030;-83
2022/05/13 05:49:35;;;;;;;28.08;14.30;;;;;;;19.66;58.35;93669.31;4973623;28;20034;-84
2022/05/13 05:52:00;;;;;;;55.28;26.52;;;;;;;19.66;58.55;93671.31;4992492;28;20088;-82
2022/05/13 05:57:16;;;;;;;44.47;24.75;;;;;;;19.57;58.83;93669.63;4995979;28;20183;-84
2022/05/13 05:59:45;;;;;;;45.38;20.90;;;;;;;19.66;58.60;93680.28;4986702;28;20165;-83
2022/05/13 06:02:11;;;;;;;52.85;24.25;;;;;;;19.61;58.78;93678.31;4969007;28;20088;-85
2022/05/13 06:04:36;;;;;;;47.78;22.35;;;;;;;19.59;58.91;93691.81;4956564;28;20046;-84
2022/05/13 06:07:04;;;;;;;61.58;26.48;;;;;;;19.61;59.02;93700.25;4970205;28;20974;-84
2022/05/13 06:09:29;;;;;;;57.55;23.23;;;;;;;19.59;59.20;93693.81;4974701;28;20153;-85
2022/05/13 06:11:55;;;;;;;37.65;18.70;;;;;;;19.60;58.84;93700.78;4977239;28;20034;-84
2022/05/13 06:14:20;;;;;;;28.52;14.07;;;;;;;19.55;59.27;93704.28;4977820;28;20042;-83
2022/05/13 06:16:46;;;;;;;25.52;12.88;;;;;;;19.57;58.92;93708.03;4978411;28;20042;-83
2022/05/13 06:19:12;;;;;;;49.35;39.20;;;;;;;19.57;59.41;93719.00;4991620;28;20096;-84
2022/05/13 06:21:37;;;;;;;19.52;11.73;;;;;;;19.53;59.60;93715.78;5010178;28;20060;-84
2022/05/13 06:24:03;;;;;;;13.68;8.88;;;;;;;19.65;59.12;93719.94;4969891;28;20125;-83
2022/05/13 06:26:29;;;;;;;17.77;9.55;;;;;;;19.58;59.45;93720.47;4981225;28;20049;-86
2022/05/13 06:28:55;;;;;;;19.50;10.63;;;;;;;19.52;59.35;93717.03;4956721;28;20052;-83
2022/05/13 06:31:21;;;;;;;19.55;10.48;;;;;;;19.52;59.68;93715.03;4968345;28;20584;-82
2022/05/13 06:33:46;;;;;;;25.60;11.23;;;;;;;19.50;59.85;93711.31;4988855;28;20065;-85
2022/05/13 06:36:13;;;;;;;26.63;11.02;;;;;;;19.48;59.69;93711.81;4992689;28;20117;-85
2022/05/13 06:38:38;;;;;;;22.70;11.93;;;;;;;19.46;59.68;93708.84;4985360;28;20050;-82
2022/05/13 06:41:04;;;;;;;23.85;12.05;;;;;;;19.55;59.52;93716.00;4988756;28;20037;-86
2022/05/13 06:43:30;;;;;;;24.77;15.10;;;;;;;19.46;60.08;93708.09;4991440;28;20049;-84
2022/05/13 06:45:55;;;;;;;30.00;17.75;;;;;;;19.45;59.96;93712.09;4985570;28;20050;-84
2022/05/13 06:48:21;;;;;;;49.85;20.48;;;;;;;19.45;60.10;93721.06;4994610;28;20038;-83
2022/05/13 06:50:47;;;;;;;49.45;21.58;;;;;;;19.41;60.10;93712.34;5009926;28;20058;-86
2022/05/13 06:53:13;;;;;;;67.35;26.42;;;;;;;19.43;59.86;93715.34;4974690;28;20044;-83
2022/05/13 06:55:39;;;;;;;51.17;27.58;;;;;;;19.42;60.06;93711.09;5007933;28;20034;-84
2022/05/13 06:58:05;;;;;;;63.75;27.83;;;;;;;19.45;59.93;93715.56;5005271;28;20033;-83
2022/05/13 07:00:31;;;;;;;55.63;25.48;;;;;;;19.42;60.10;93715.84;4972770;28;20060;-85
2022/05/13 07:02:56;;;;;;;58.10;25.00;;;;;;;19.47;59.98;93718.56;5005090;28;20038;-85
2022/05/13 07:05:22;;;;;;;52.78;21.85;;;;;;;19.40;60.17;93719.09;5005335;28;20113;-84
2022/05/13 07:07:47;;;;;;;50.40;24.20;;;;;;;19.43;60.06;93712.59;5007374;28;20428;-84
2022/05/13 07:10:13;;;;;;;58.50;31.98;;;;;;;19.39;60.13;93714.88;4990103;28;20143;-83
2022/05/13 07:12:39;;;;;;;48.72;26.95;;;;;;;19.43;60.14;93723.56;5009044;28;20033;-85
2022/05/13 07:15:05;;;;;;;36.95;22.42;;;;;;;19.41;60.12;93731.56;4999013;28;20141;-85
2022/05/13 07:17:32;;;;;;;50.42;22.38;;;;;;;19.38;60.28;93715.38;4990156;28;20057;-85
2022/05/13 07:19:57;;;;;;;42.30;20.63;;;;;;;19.46;60.13;93717.06;4995303;28;20057;-85
2022/05/13 07:22:23;;;;;;;42.90;19.10;;;;;;;19.41;60.09;93715.09;4992890;28;20034;-85
2022/05/13 07:24:49;;;;;;;63.35;23.08;;;;;;;19.49;60.22;93721.50;5000593;28;20355;-83
2022/05/13 07:27:15;;;;;;;109.55;28.75;;;;;;;19.45;60.20;93710.09;4989606;28;20030;-85
2022/05/13 07:29:40;;;;;;;78.38;31.60;;;;;;;19.46;60.41;93717.06;4976019;28;20034;-87
2022/05/13 07:32:06;;;;;;;51.08;22.15;;;;;;;19.43;60.79;93718.06;4992085;28;20034;-84
2022/05/13 07:34:32;;;;;;;95.18;38.80;;;;;;;19.51;60.61;93715.53;4976337;28;20046;-84
2022/05/13 07:36:58;;;;;;;93.78;38.28;;;;;;;19.49;60.74;93701.56;4992807;28;20052;-83
2022/05/13 07:42:09;;;;;;;79.68;34.55;;;;;;;19.50;60.76;93709.31;4975857;28;20101;-83
2022/05/13 07:44:34;;;;;;;64.85;28.42;;;;;;;19.44;60.58;93694.88;4989708;28;20458;-84
2022/05/13 07:47:01;;;;;;;55.72;24.25;;;;;;;19.44;60.73;93696.88;5007648;28;20046;-84
2022/05/13 07:49:27;;;;;;;48.17;22.00;;;;;;;19.45;60.37;93687.41;4976202;28;20070;-83
2022/05/13 07:51:52;;;;;;;51.63;25.00;;;;;;;19.42;60.84;93680.94;4993938;28;20070;-85
2022/05/13 07:54:18;;;;;;;67.18;26.02;;;;;;;19.44;60.47;93683.19;4992645;28;20042;-84
2022/05/13 07:56:43;;;;;;;61.05;22.83;;;;;;;19.45;60.63;93684.66;4989604;28;20031;-83
2022/05/13 07:59:09;;;;;;;50.28;20.90;;;;;;;19.43;60.62;93692.66;4991555;28;20509;-83
2022/05/13 08:01:34;;;;;;;50.15;20.45;;;;;;;19.43;61.04;93690.66;4991545;28;20034;-83
2022/05/13 08:04:00;;;;;;;46.65;17.55;;;;;;;19.45;61.25;93695.63;4976588;28;20050;-82
2022/05/13 08:06:25;;;;;;;54.70;19.52;;;;;;;19.45;61.00;93696.38;4979337;28;20046;-85
2022/05/13 08:08:56;;;;;;;52.95;22.25;;;;;;;19.42;61.43;93715.84;4989626;28;20044;-83
2022/05/13 08:11:22;;;;;;;58.38;23.75;;;;;;;19.51;61.06;93719.03;4992880;28;20037;-84
2022/05/13 08:13:47;;;;;;;38.92;21.17;;;;;;;19.50;61.20;93711.31;4991573;28;20354;-84
2022/05/13 08:16:15;;;;;;;27.95;16.67;;;;;;;19.46;61.01;93708.09;4973837;28;20071;-84
2022/05/13 08:18:40;;;;;;;35.15;16.33;;;;;;;19.43;61.06;93718.06;4976279;28;20038;-83
2022/05/13 08:21:06;;;;;;;31.23;15.05;;;;;;;19.44;61.16;93727.06;4973532;28;20832;-84
2022/05/13 08:23:32;;;;;;;23.88;15.65;;;;;;;19.43;60.84;93725.56;4991316;28;20030;-86
2022/05/13 08:25:57;;;;;;;32.00;13.77;;;;;;;19.45;60.66;93726.53;4990904;28;20034;-85
2022/05/13 08:28:23;;;;;;;34.25;15.32;;;;;;;19.42;60.59;93733.03;4974403;28;20052;-84
2022/05/13 08:30:49;;;;;;;64.35;17.52;;;;;;;19.44;60.87;93727.78;4991156;28;20877;-85
2022/05/13 08:33:14;;;;;;;42.53;16.27;;;;;;;19.47;60.84;93729.53;4989549;28;20042;-86
2022/05/13 08:35:46;;;;;;;129.10;33.42;;;;;;;19.45;60.60;93729.28;4992663;28;20100;-87
2022/05/13 08:38:12;;;;;;;149.30;29.52;;;;;;;19.47;60.71;93726.03;4969599;28;20069;-84
2022/05/13 08:41:01;;;;;;;113.47;23.40;;;;;;;19.51;60.68;93730.00;4990900;28;20064;-84
2022/05/13 08:43:47;;;;;;;71.13;20.95;;;;;;;19.54;61.01;93722.00;4975391;28;20038;-87
2022/05/13 08:46:31;;;;;;;72.25;23.08;;;;;;;19.54;60.68;93719.25;5006827;28;20509;-84
2022/05/13 08:49:02;;;;;;;52.90;23.58;;;;;;;19.58;60.84;93727.97;5008104;28;20477;-83
2022/05/13 08:51:47;;;;;;;69.35;27.05;;;;;;;19.57;60.58;93721.72;4993107;28;20042;-84
2022/05/13 08:54:16;;;;;;;51.80;23.90;;;;;;;19.59;60.69;93730.19;5007734;28;20034;-85
2022/05/13 08:56:45;;;;;;;42.08;20.17;;;;;;;19.61;60.36;93726.94;5009568;28;20033;-86
2022/05/13 08:59:13;;;;;;;84.13;23.10;;;;;;;19.64;60.52;93726.66;4975301;28;20049;-83
2022/05/13 09:01:47;;;;;;;65.53;20.30;;;;;;;19.69;60.06;93727.88;5008959;28;20102;-83
2022/05/13 09:04:36;;;;;;;36.17;15.77;;;;;;;19.65;60.33;93730.91;4982919;28;20056;-84
2022/05/13 09:07:04;;;;;;;29.38;12.90;;;;;;;19.65;59.76;93730.91;4989800;28;20057;-84
2022/05/13 09:09:31;;;;;;;35.03;16.35;;;;;;;19.67;60.03;93733.13;4974700;28;20099;-85
2022/05/13 09:12:33;;;;;;;34.40;16.38;;;;;;;19.69;59.74;93734.13;4997045;28;20056;-83
2022/05/13 09:15:18;;;;;;;40.30;15.75;;;;;;;19.68;59.78;93738.09;4983933;28;20038;-83
2022/05/13 09:17:57;;;;;;;35.33;15.73;;;;;;;19.67;59.75;93733.88;5008232;28;20044;-82
2022/05/13 09:20:23;;;;;;;38.97;17.60;;;;;;;19.67;60.05;93733.13;5003019;28;20042;-85
2022/05/13 09:22:54;;;;;;;37.80;14.57;;;;;;;19.64;59.78;93723.94;4988448;28;20049;-83
2022/05/13 09:25:24;;;;;;;47.53;18.27;;;;;;;19.68;59.83;93727.13;4990943;28;20041;-82
2022/05/13 09:27:52;;;;;;;51.97;20.98;;;;;;;19.64;59.91;93717.69;4989806;28;20053;-82
2022/05/13 09:30:21;;;;;;;64.70;22.10;;;;;;;19.61;59.61;93713.97;4990877;28;20045;-84
2022/05/13 09:32:46;;;;;;;45.30;20.15;;;;;;;19.60;59.87;93719.97;4971089;28;20038;-84
2022/05/13 09:35:35;;;;;;;69.03;36.22;;;;;;;19.66;59.53;93710.44;4989230;28;20049;-83
2022/05/13 09:38:11;;;;;;;54.42;20.30;;;;;;;19.71;59.23;93700.66;4981699;28;20085;-86
2022/05/13 09:40:38;;;;;;;133.45;22.65;;;;;;;19.68;59.32;93701.72;4977604;28;20096;-84
2022/05/13 09:43:04;;;;;;;251.70;34.10;;;;;;;19.67;59.25;93703.72;4967639;28;20042;-83
2022/05/13 09:45:36;;;;;;;49.00;19.17;;;;;;;19.65;59.34;93702.72;4952271;28;20050;-82
2022/05/13 09:48:20;;;;;;;48.85;18.67;;;;;;;19.66;59.13;93704.97;4985966;28;20065;-82
2022/05/13 09:50:49;;;;;;;53.10;18.38;;;;;;;19.72;59.33;93707.63;4951989;28;20044;-82
2022/05/13 09:53:21;;;;;;;42.45;16.95;;;;;;;19.74;59.31;93703.13;4951222;28;20050;-85
2022/05/13 09:55:46;;;;;;;50.45;17.20;;;;;;;19.67;59.33;93692.75;4984903;28;20082;-86
2022/05/13 09:58:27;;;;;;;56.40;18.02;;;;;;;19.71;59.48;93687.69;4935941;28;20125;-85
2022/05/13 10:00:56;;;;;;;53.53;17.35;;;;;;;19.77;59.30;93693.88;4984211;28;20043;-84
2022/05/13 10:03:31;;;;;;;56.70;16.98;;;;;;;19.80;58.96;93684.63;4925136;29;20062;-85
2022/05/13 10:06:11;;;;;;;54.78;17.30;;;;;;;19.88;60.06;93671.09;4927440;29;20048;-84
2022/05/13 10:08:55;;;;;;;31.63;13.25;;;;;;;19.90;59.14;93681.56;4936679;29;20046;-83
2022/05/13 10:14:22;;;;;;;41.20;15.40;;;;;;;19.92;58.76;93676.31;4938092;28;20114;-85
2022/05/13 10:16:48;;;;;;;47.53;15.35;;;;;;;19.97;58.21;93678.97;4924986;28;20142;-85
2022/05/13 10:19:23;;;;;;;47.00;17.80;;;;;;;19.98;58.38;93676.97;4933390;28;20042;-85
2022/05/13 10:22:22;;;;;;;42.97;14.75;;;;;;;19.98;58.21;93677.72;4927246;28;20050;-84
2022/05/13 10:24:57;;;;;;;42.83;16.35;;;;;;;20.04;57.71;93675.66;4965056;28;20039;-84
2022/05/13 10:27:39;;;;;;;116.80;20.38;;;;;;;20.05;57.93;93673.66;4917813;28;20078;-86
2022/05/13 10:30:34;;;;;;;69.28;15.23;;;;;;;20.03;57.78;93674.16;4934467;28;20656;-84
2022/05/13 10:33:06;;;;;;;44.70;15.40;;;;;;;20.04;57.93;93672.91;4918163;29;20050;-84
2022/05/13 10:35:39;;;;;;;40.30;14.10;;;;;;;20.05;57.77;93663.44;4998504;28;20076;-84
2022/05/13 10:38:30;;;;;;;52.47;16.65;;;;;;;20.06;57.90;93666.91;4987346;28;20740;-85
2022/05/13 10:41:00;;;;;;;59.55;16.98;;;;;;;20.06;57.61;93664.16;4987565;28;20053;-85
2022/05/13 10:43:31;;;;;;;49.70;15.40;;;;;;;20.10;57.40;93668.13;4971274;28;20034;-85
2022/05/13 10:45:58;;;;;;;37.08;12.90;;;;;;;20.13;57.32;93666.34;4978620;28;20280;-84
2022/05/13 10:48:28;;;;;;;40.47;17.33;;;;;;;20.12;57.40;93653.88;4973921;28;20106;-86
2022/05/13 10:51:23;;;;;;;105.03;25.03;;;;;;;20.13;57.34;93663.59;4972986;28;20092;-85
2022/05/13 10:54:10;;;;;;;99.20;25.35;;;;;;;20.13;57.48;93650.63;5003532;28;20048;-84
2022/05/13 10:56:58;;;;;;;65.63;19.52;;;;;;;20.19;58.73;93648.53;4999223;28;20046;-85
2022/05/13 10:59:42;;;;;;;86.20;29.00;;;;;;;20.19;57.41;93637.56;4987551;28;20042;-85
2022/05/13 11:02:32;;;;;;;42.35;16.58;;;;;;;20.16;57.47;93644.06;5005452;28;20061;-84
2022/05/13 11:05:29;;;;;;;35.25;14.30;;;;;;;20.17;57.24;93636.59;4988258;28;20037;-84
2022/05/13 11:08:07;;;;;;;43.67;17.35;;;;;;;20.20;57.08;93641.03;5003878;28;20080;-83
2022/05/13 11:11:03;;;;;;;42.70;18.65;;;;;;;20.23;57.07;93634.53;5001721;28;20887;-84
2022/05/13 11:13:46;;;;;;;39.33;16.30;;;;;;;20.20;57.15;93636.28;4985961;28;20397;-85
2022/05/13 11:16:43;;;;;;;41.95;17.15;;;;;;;20.18;57.18;93636.06;4973970;28;20505;-85
2022/05/13 11:19:27;;;;;;;68.15;41.55;;;;;;;20.22;57.07;93635.78;5003278;28;20045;-85
2022/05/13 11:22:03;;;;;;;54.20;30.50;;;;;;;20.22;57.15;93627.56;4988538;28;20057;-85
2022/05/13 11:28:03;;;;;;;31.52;20.15;;;;;;;20.27;56.80;93628.75;4989089;28;20059;-85
2022/05/13 11:30:50;;;;;;;45.83;20.42;;;;;;;20.29;56.73;93635.22;4989393;28;20100;-83
2022/05/13 11:33:31;;;;;;;71.95;41.92;;;;;;;20.31;56.73;93632.69;4996351;28;20056;-85
2022/05/13 11:36:06;;;;;;;44.95;22.67;;;;;;;20.29;56.71;93642.69;4969306;28;20042;-86
2022/05/13 11:38:57;;;;;;;32.92;17.63;;;;;;;20.32;57.32;93639.66;5010237;28;20042;-86
2022/05/13 11:41:23;;;;;;;39.92;18.13;;;;;;;20.32;56.70;93636.19;4988759;28;20549;-85
2022/05/13 11:44:03;;;;;;;71.38;42.78;;;;;;;20.29;56.80;93629.72;4983043;28;20073;-85
2022/05/13 11:46:52;;;;;;;43.72;20.85;;;;;;;20.28;57.20;93630.97;4988738;28;20515;-85
2022/05/13 11:49:25;;;;;;;36.38;16.35;;;;;;;20.30;56.90;93624.97;4985951;28;20057;-85
2022/05/13 11:51:51;;;;;;;39.55;18.70;;;;;;;20.29;56.95;93626.97;5001991;28;20436;-85
2022/05/13 11:54:19;;;;;;;44.60;28.40;;;;;;;20.33;57.21;93623.94;4986281;28;20044;-85
2022/05/13 11:56:46;;;;;;;33.13;19.67;;;;;;;20.31;57.08;93612.72;4971834;28;20042;-86